Arcadia, Illinois
Current Conditions -  °F | °C
As of 7:55 AM on Monday 20 Oct 2014 (Local Time) from KIJX Reporting Station
Clear Clear  
Wind Chill: 12°   Ceiling: Unl
Heat Index: 12°   Visibility: 10mi
Dew Point: 10°   Wind: 6mph
Humidity: 88%   Direction: 230°SW
Pressure: 29.93"   Gusts: NA
Location:  39.7413°N, 90.2138°W
Report Text: KIJX 201255Z AUTO 23005KT 10SM CLR 12/10 A2993 RMK AO2 T01190100
Loading
Personal Weather Stations






























Interactive Weather Map
Tropical Storm Tracking
New forecast layout! Learn more

10-Day Weather Forecast

Advertisements
Track Severe Weather on mobile